WetterOnline ( https://www.wetteronline.de )

Wetter aktuell Osiek

Aktuelles Wetter: Torun (72m)

6-stündlich | Neueste Meldungen
Ortszeit Temperatur Wetter
So, 28.02. 7:00 2.3° C bedeckt
So, 28.02. 1:00 -0.7° C fast wolkenlos
Sa, 27.02. 19:00 3.1° C wolkenlos
Sa, 27.02. 13:00 7.9° C leicht bewölkt
Sa, 27.02. 7:00 3.3° C fast wolkenlos
Sa, 27.02. 1:00 5.5° C bedeckt
Fr, 26.02. 19:00 5.8° C wolkig
Fr, 26.02. 13:00 7.9° C leicht bewölkt
Ortszeit Temperatur Wetter
So, 28.02. 12:00 4.5° C bedeckt
So, 28.02. 11:00 4.0° C bedeckt
So, 28.02. 10:00 3.7° C bedeckt
So, 28.02. 9:00 3.1° C bedeckt
So, 28.02. 8:00 3.0° C bedeckt
So, 28.02. 7:00 2.3° C bedeckt
Ortszeit Relative Feuchte Sichtweite
So, 28.02. 7:00 96% 6 km
So, 28.02. 1:00 91% 11 km
Sa, 27.02. 19:00 71% 10 km
Sa, 27.02. 13:00 63% 30 km
Sa, 27.02. 7:00 87% 11 km
Sa, 27.02. 1:00 78% 23 km
Fr, 26.02. 19:00 73% 10 km
Fr, 26.02. 13:00 69% 30 km
Ortszeit Relative Feuchte Sichtweite
So, 28.02. 12:00 85% 14 km
So, 28.02. 11:00 91% 6 km
So, 28.02. 10:00 91% 7 km
So, 28.02. 9:00 93% 6 km
So, 28.02. 8:00 94% 6 km
So, 28.02. 7:00 96% 6 km
Ortszeit Niederschlagsmenge Niederschlagsart
So, 28.02. 7:00 0.0 l/m2 in 12 Std. -
So, 28.02. 1:00 0.0 l/m2 in 6 Std. -
Sa, 27.02. 19:00 0.0 l/m2 in 12 Std. -
Sa, 27.02. 13:00 0.0 l/m2 in 6 Std. -
Sa, 27.02. 7:00 0.0 l/m2 in 12 Std. -
Sa, 27.02. 1:00 0.0 l/m2 in 6 Std. -
Fr, 26.02. 19:00 0.1 l/m2 in 12 Std. -
Fr, 26.02. 13:00 0.1 l/m2 in 6 Std. Regen
Ortszeit Niederschlagsmenge Niederschlagsart
So, 28.02. 12:00 keine Meldung -
So, 28.02. 11:00 keine Meldung -
So, 28.02. 10:00 keine Meldung -
So, 28.02. 9:00 keine Meldung -
So, 28.02. 8:00 keine Meldung -
So, 28.02. 7:00 keine Meldung -
Ortszeit Stärke Spitze Richtung
km/h Bft. km/h Grad Sektor
So, 28.02. 7:00 7 2 - 250° W
So, 28.02. 1:00 7 2 - 250° W
Sa, 27.02. 19:00 4 1 36 290° W
Sa, 27.02. 13:00 22 4 40 290° W
Sa, 27.02. 7:00 11 2 36 280° W
Sa, 27.02. 1:00 14 3 40 270° W
Fr, 26.02. 19:00 14 3 36 280° W
Fr, 26.02. 13:00 11 2 - 270° W
Ortszeit Stärke Spitze Richtung
km/h Bft. km/h Grad Sektor
So, 28.02. 12:00 18 3 36 250° W
So, 28.02. 11:00 18 3 32 260° W
So, 28.02. 10:00 14 3 32 260° W
So, 28.02. 9:00 7 2 - 220° SW
So, 28.02. 8:00 11 2 - 250° W
So, 28.02. 7:00 7 2 - 250° W
Ortszeit Untergrenze Bedeckung Gattung
total tief tief mittel hoch
So, 28.02. 7:00 90 m 8/8 8/8 St - -
So, 28.02. 1:00 - 1/8 0/8 - - Ci
Sa, 27.02. 19:00 - 0/8 0/8 - - -
Sa, 27.02. 13:00 - 2/8 2/8 Cu - -
Sa, 27.02. 7:00 390 m 1/8 1/8 Sc - -
Sa, 27.02. 1:00 - 8/8 8/8 Sc - -
Fr, 26.02. 19:00 - 5/8 5/8 Sc - -
Fr, 26.02. 13:00 - 6/8 4/8 - Ac Cs
Ortszeit Bedeckungsgrad in Achtel und Wolkenuntergrenze
So, 28.02. 12:00 8(330m)
So, 28.02. 11:00 8(180m)
So, 28.02. 10:00 8(180m)
So, 28.02. 9:00 6(180m) 8(330m)
So, 28.02. 8:00 8(150m)
So, 28.02. 7:00 8(90m)
Ortszeit Luftdruck NN (hPa) Tendenz (hPa in 3 Std.)
So, 28.02. 7:00 1033 - 0,8
So, 28.02. 1:00 1035 - 0,2
Sa, 27.02. 19:00 1034 + 0,8
Sa, 27.02. 13:00 1032 + 1,6
Sa, 27.02. 7:00 1029 + 1,9
Sa, 27.02. 1:00 1026 + 1,0
Fr, 26.02. 19:00 1025 + 1,4
Fr, 26.02. 13:00 1025 - 0,2
Ortszeit Luftdruck NN (hPa) Tendenz (hPa in 3 Std.)
So, 28.02. 12:00 1032 - 0,8
So, 28.02. 11:00 1032 - 0,4
So, 28.02. 10:00 1033 + 0,2
So, 28.02. 9:00 1033 - 0,2
So, 28.02. 8:00 1033 - 0,7
So, 28.02. 7:00 1033 - 0,8
Ortszeit Schneehöhe (cm)
So, 28.02. 7:00 -
So, 28.02. 1:00 -
Sa, 27.02. 19:00 -
Sa, 27.02. 13:00 -
Sa, 27.02. 7:00 -
Sa, 27.02. 1:00 -
Fr, 26.02. 19:00 -
Fr, 26.02. 13:00 -
Ortszeit Schneehöhe (cm)
So, 28.02. 12:00 -
So, 28.02. 11:00 -
So, 28.02. 10:00 -
So, 28.02. 9:00 -
So, 28.02. 8:00 -
So, 28.02. 7:00 -
Link zu dieser Seite / Seite empfehlen

Das Wetter in ...